• Join FlightAware (Why Join?)
  • Login
  • US Flag 
07:28AM EDT


 

Airport Tracker/Info


-or-


 

Live Flight TrackerFlight Track Log ✈ SKW5510 ✈ 25-Apr-2013 ✈ KMRY - KDEN

Flight Track Log - Related Links

Times and Time Zones

All times are in EDT time to prevent confusion due to time zone crossing. See the SKW5510 flight status page for this flight to view local times or setup timezone preferences in your user account.

Time Position Orientation Groundspeed Altitude Reporting Facility
EDT Latitude Longitude Course Direction KTS MPH feet Rate Location/Type
01:04PM 36.5833 -121.7667 90° East 198 228 2,700  Level Northern Cal TRACON
01:05PM 36.6000 -121.6833 76° East 250 288 4,900 2,400 Climbing Northern Cal TRACON
01:06PM 36.6731 -121.2565 84° East  Level FlightAware Approximate
01:06PM 36.6167 -121.6000 76° East 269 310 7,600  Level Northern Cal TRACON
01:06PM 36.6175 -121.5339 89° East 267 307 9,300 2,220 Climbing Oakland Center
01:07PM 36.6869 -121.1087 80° East  Level FlightAware Approximate
01:08PM 36.7000 -120.9613 90° East  Level FlightAware Approximate
01:08PM 36.6311 -121.4306 81° East 292 336 11,600  Level Oakland Center
01:09PM 36.7000 -120.8124 90° East  Level FlightAware Approximate
01:09PM 36.6458 -121.3181 81° East 318 366 13,500  Level Oakland Center
01:10PM 36.6628 -121.1997 80° East 340 391 15,400 1,980 Climbing Oakland Center
01:11PM 36.6800 -121.0586 81° East 346 398 17,600 1,800 Climbing Oakland Center
01:12PM 36.6947 -120.9383 81° East 349 402 19,100 1,560 Climbing Oakland Center
01:13PM 36.7106 -120.8181 81° East 350 403 20,800 1,380 Climbing Oakland Center
01:14PM 36.7297 -120.6969 79° East 358 412 22,000 1,140 Climbing Oakland Center
01:15PM 36.7506 -120.5739 78° East 362 417 23,200 1,080 Climbing Oakland Center
01:16PM 36.7728 -120.4489 77° East 367 422 24,300 960 Climbing Oakland Center
01:17PM 36.7956 -120.3228 77° East 371 427 25,200 960 Climbing Oakland Center
01:18PM 36.8511 -120.2050 59° Northeast 375 432 26,300 960 Climbing Oakland Center
01:19PM 36.9147 -120.0742 59° Northeast 382 440 27,200 720 Climbing Oakland Center
01:20PM 36.9717 -119.9586 58° Northeast 390 449 27,800 540 Climbing Oakland Center
01:21PM 37.0300 -119.8417 58° Northeast 397 457 28,400 480 Climbing Oakland Center
01:22PM 37.0886 -119.7214 59° Northeast 405 466 28,900 480 Climbing Oakland Center
01:23PM 37.1481 -119.5994 59° Northeast 410 472 29,400 480 Climbing Oakland Center
01:24PM 37.2069 -119.4772 59° Northeast 412 474 29,900 480 Climbing Oakland Center
01:25PM 37.2656 -119.3544 59° Northeast 410 472 30,400 480 Climbing Oakland Center
01:26PM 37.3247 -119.2319 59° Northeast 410 472 30,900 480 Climbing Oakland Center
01:27PM 37.3806 -119.1069 61° Northeast 412 474 31,400 480 Climbing Oakland Center
01:28PM 37.4500 -118.9617 59° Northeast 405 466 32,000 480 Climbing Oakland Center
01:29PM 37.5081 -118.8408 59° Northeast 404 465 32,500 480 Climbing Oakland Center
01:30PM 37.5594 -118.7336 59° Northeast 405 466 33,000 240 Climbing Oakland Center
01:31PM 37.6297 -118.5833 59° Northeast 414 476 33,000  Level Oakland Center
01:32PM 37.6881 -118.4556 60° Northeast 420 483 33,000  Level Oakland Center
01:33PM 37.7500 -118.3236 59° Northeast 432 497 33,000  Level Oakland Center
01:34PM 37.8108 -118.1925 60° Northeast 434 499 33,000  Level Oakland Center
01:35PM 37.8728 -118.0581 60° Northeast 442 509 33,000  Level Oakland Center
01:36PM 37.9339 -117.9247 60° Northeast 438 504 33,000  Level Oakland Center
01:37PM 37.9947 -117.7900 60° Northeast 440 506 33,000  Level Oakland Center
01:38PM 38.0381 -117.6422 70° East 446 513 33,000  Level Oakland Center
01:39PM 38.0786 -117.4933 71° East 446 513 33,000  Level Oakland Center
01:40PM 38.1208 -117.3392 71° East 448 516 33,000  Level Oakland Center
01:41PM 38.1575 -117.2033 71° East 448 516 33,000  Level Salt Lake Center
01:41PM 38.1689 -117.1569 73° East 453 521 33,000  Level Oakland Center
01:42PM 38.1953 -117.0611 71° East 446 513 33,000  Level Salt Lake Center
01:43PM 38.2356 -116.9092 71° East 450 518 33,000  Level Salt Lake Center
01:44PM 38.2750 -116.7589 71° East 449 517 33,000  Level Salt Lake Center
01:45PM 38.3228 -116.5772 71° East 451 519 33,000  Level Salt Lake Center
01:46PM 38.3628 -116.4256 71° East 452 520 33,000  Level Salt Lake Center
01:47PM 38.4017 -116.2736 72° East 451 519 33,000  Level Salt Lake Center
01:48PM 38.4408 -116.1219 72° East 451 519 33,000  Level Salt Lake Center
01:49PM 38.4792 -115.9703 72° East 450 518 33,000  Level Salt Lake Center
01:50PM 38.5183 -115.8186 72° East 450 518 33,000  Level Salt Lake Center
01:51PM 38.5644 -115.6361 72° East 450 518 33,000  Level Salt Lake Center
01:52PM 38.6036 -115.4819 72° East 454 522 33,000  Level Salt Lake Center
01:54PM 38.6364 -115.3431 73° East 456 525 33,000  Level Salt Lake Center
01:55PM 38.6822 -115.1578 72° East 456 525 33,000  Level Salt Lake Center
01:56PM 38.7211 -115.0025 72° East 457 526 33,000  Level Salt Lake Center
01:57PM 38.7592 -114.8450 73° East 461 531 33,000  Level Salt Lake Center
01:58PM 38.8000 -114.6839 72° East 470 541 33,000  Level Salt Lake Center
01:59PM 38.8381 -114.5269 73° East 465 535 33,000  Level Salt Lake Center
02:00PM 38.8764 -114.3697 73° East 463 533 33,000  Level Salt Lake Center
02:01PM 38.9208 -114.1792 73° East 464 534 33,000  Level Salt Lake Center
02:02PM 38.9578 -114.0219 73° East 462 532 33,000  Level Salt Lake Center
02:03PM 38.9961 -113.8589 73° East 473 544 33,000  Level Salt Lake Center
02:04PM 39.0339 -113.6997 73° East 468 539 33,000  Level Salt Lake Center
02:05PM 39.0706 -113.5372 74° East 471 542 33,000  Level Salt Lake Center
02:06PM 39.1078 -113.3761 73° East 470 541 33,000  Level Salt Lake Center
02:07PM 39.1453 -113.2131 73° East 473 544 33,000  Level Salt Lake Center
02:08PM 39.1892 -113.0172 74° East 474 545 33,000  Level Salt Lake Center
02:09PM 39.2264 -112.8550 73° East 473 544 33,000  Level Salt Lake Center
02:10PM 39.2622 -112.6897 74° East 477 549 33,000  Level Salt Lake Center
02:11PM 39.2981 -112.5381 73° East 478 550 33,000  Level Salt Lake Center
02:12PM 39.3353 -112.3381 76° East 479 551 33,000  Level Salt Lake Center
02:13PM 39.3664 -112.1717 76° East 480 552 33,000  Level Salt Lake Center
02:14PM 39.3975 -112.0050 76° East 480 552 33,000  Level Salt Lake Center
02:15PM 39.4278 -111.8383 77° East 480 552 33,000  Level Salt Lake Center
02:16PM 39.4581 -111.6703 77° East 483 556 33,000  Level Salt Lake Center
02:17PM 39.4947 -111.4686 77° East 483 556 33,000  Level Salt Lake Center
02:18PM 39.5247 -111.3006 77° East 482 555 33,000  Level Salt Lake Center
02:19PM 39.5531 -111.1367 77° East 485 558 33,000  Level Salt Lake Center
02:20PM 39.5869 -110.9469 77° East 486 559 33,000  Level Salt Lake Center
02:21PM 39.6147 -110.7839 77° East 486 559 33,000  Level Salt Lake Center
02:22PM 39.6467 -110.5961 77° East 480 552 33,000  Level Salt Lake Center
02:23PM 39.6739 -110.4353 78° East 478 550 33,000  Level Salt Lake Center
02:25PM 39.7050 -110.2522 77° East 468 539 33,000  Level Salt Lake Center
02:26PM 39.7306 -110.0950 78° East 465 535 33,000  Level Salt Lake Center
02:27PM 39.7561 -109.9389 78° East 462 532 33,000  Level Salt Lake Center
02:28PM 39.7858 -109.7583 78° East 458 527 33,000  Level Salt Lake Center
02:29PM 39.8103 -109.6025 78° East 458 527 33,000  Level Salt Lake Center
02:29PM 39.8275 -109.4986 78° East 456 525 33,000  Level Denver Center
02:30PM 39.8567 -109.3161 78° East 460 529 33,000  Level Denver Center
02:31PM 39.8642 -109.2664 79° East 458 527 33,000  Level Salt Lake Center
02:31PM 39.8808 -109.1608 78° East 457 526 33,000  Level Denver Center
02:32PM 39.8928 -109.0847 78° East 457 526 33,000  Level Salt Lake Center
02:33PM 39.9172 -108.9269 79° East 460 529 33,000  Level Salt Lake Center
02:33PM 39.9336 -108.8203 79° East 460 529 33,000  Level Denver Center
02:34PM 39.9578 -108.6628 79° East 460 529 33,000  Level Denver Center
02:35PM 39.9861 -108.4786 79° East 460 529 33,000  Level Denver Center
02:36PM 40.0094 -108.3208 79° East 460 529 33,000  Level Denver Center
02:38PM 40.0361 -108.1383 79° East 459 528 33,000  Level Denver Center
02:39PM 40.0589 -107.9811 79° East 459 528 33,000  Level Denver Center
02:40PM 40.0875 -107.8244 77° East 462 532 33,000  Level Denver Center
02:41PM 40.1250 -107.6439 75° East 462 532 33,000  Level Denver Center
02:42PM 40.1506 -107.4858 78° East 464 534 33,000  Level Denver Center
02:43PM 40.1700 -107.3000 82° East 463 533 33,000  Level Denver Center
02:44PM 40.1878 -107.1406 82° East 463 533 33,000  Level Denver Center
02:45PM 40.2069 -106.9533 82° East 465 535 33,000  Level Denver Center
02:46PM 40.2247 -106.7908 82° East 468 539 33,000  Level Denver Center
02:47PM 40.2433 -106.6225 82° East 467 537 33,000  Level Denver Center
02:48PM 40.2614 -106.4433 82° East 468 539 33,000  Level Denver Center
02:49PM 40.2811 -106.2550 82° East 467 537 33,000  Level Denver Center
02:50PM 40.2931 -106.1128 84° East 469 540 33,000 -1,200 Level Denver Center
02:51PM 40.3128 -105.9058 83° East 475 547 30,600 -3,000 Descending Denver Center
02:52PM 40.3292 -105.7300 83° East 484 557 26,800 -3,780 Descending Denver Center
02:53PM 40.3444 -105.5522 84° East 488 562 22,800 -3,360 Descending Denver Center
02:54PM 40.3253 -105.3889 99° East 423 487 19,900 -2,400 Descending Denver Center
02:55PM 40.2553 -105.2797 130° Southeast 366 421 17,900 -1,920 Descending Denver Center
02:56PM 40.1936 -105.1811 129° Southeast 352 405 16,000 -1,800 Descending Denver Center
02:57PM 40.1133 -105.0578 130° Southeast 342 394 13,900 -1,380 Descending Denver Center
02:58PM 40.0500 -104.9597 130° Southeast 351 404 13,000 -480 Descending Denver Center
02:59PM 39.9983 -104.8792 130° Southeast 289 333 12,900 -480 Descending Denver Center
03:00PM 39.9397 -104.8075 137° Southeast 274 315 12,100 -480 Descending Denver Center
03:02PM 39.8725 -104.8075 180° South 247 284 12,000 -60 Descending Denver Center
03:03PM 39.8053 -104.8094 181° South 228 262 12,000 -60 Level Denver Center
03:04PM 39.7378 -104.8114 181° South 227 261 11,900 -780 Descending Denver Center
03:05PM 39.6753 -104.8133 181° South 226 260 10,500 -1,380 Descending Denver Center
03:06PM 39.6519 -104.7411 113° Southeast 237 273 9,100 -1,380 Descending Denver Center